Time;durP1;ratioP1;P1;durP2;ratioP2;P2;SDS_P1;SDS_P2;PMS_P1;PMS_P2;Temp;Humidity;BMP_temperature;BMP_pressure;BME280_temperature;BME280_humidity;BME280_pressure;Samples;Min_cycle;Max_cycle;Signal;HPM_P1;HPM_P2
2021/12/19 00:01:27;;;;;;;10.93;4.50;;;8.20;99.90;;;;;;5036106;28;20217;-69
2021/12/19 00:04:13;;;;;;;4.37;2.30;;;8.00;99.90;;;;;;5035444;28;20231;-69
2021/12/19 00:09:24;;;;;;;9.20;2.60;;;7.90;99.90;;;;;;5035427;28;20214;-69
2021/12/19 00:11:49;;;;;;;6.50;3.40;;;7.90;99.90;;;;;;5037404;28;20225;-70
2021/12/19 00:14:15;;;;;;;8.97;3.53;;;7.90;99.90;;;;;;5036312;28;20231;-70
2021/12/19 00:16:41;;;;;;;5.97;2.53;;;7.80;99.90;;;;;;5039326;28;20223;-72
2021/12/19 00:19:06;;;;;;;6.07;2.60;;;7.80;99.90;;;;;;5033527;28;20579;-71
2021/12/19 00:21:32;;;;;;;6.50;2.97;;;7.80;99.90;;;;;;5040785;28;20211;-68
2021/12/19 00:23:58;;;;;;;8.93;2.67;;;7.80;99.90;;;;;;5036208;28;20321;-69
2021/12/19 00:26:23;;;;;;;10.40;2.77;;;7.80;99.90;;;;;;5039139;28;20195;-69
2021/12/19 00:28:50;;;;;;;5.73;2.83;;;7.80;99.90;;;;;;5038330;28;20202;-69
2021/12/19 00:31:16;;;;;;;6.47;3.10;;;7.90;99.90;;;;;;5034280;28;20202;-68
2021/12/19 00:33:42;;;;;;;7.17;3.33;;;7.80;99.90;;;;;;5033988;28;20199;-70
2021/12/19 00:36:08;;;;;;;7.40;2.63;;;7.90;99.90;;;;;;5040129;28;20202;-70
2021/12/19 00:38:35;;;;;;;10.33;3.27;;;7.80;99.90;;;;;;5035346;28;20236;-69
2021/12/19 00:41:02;;;;;;;8.83;3.10;;;7.80;99.90;;;;;;5040219;28;20212;-69
2021/12/19 00:43:44;;;;;;;8.67;3.90;;;7.80;99.90;;;;;;5037647;28;20198;-69
2021/12/19 00:46:13;;;;;;;10.37;3.97;;;7.80;99.90;;;;;;5036121;28;20189;-71
2021/12/19 00:48:45;;;;;;;4.37;3.10;;;7.80;99.90;;;;;;5036189;28;20195;-69
2021/12/19 00:51:14;;;;;;;8.23;4.13;;;7.80;99.90;;;;;;5034509;28;20187;-70
2021/12/19 00:53:41;;;;;;;9.97;3.60;;;7.80;99.90;;;;;;5037976;28;20250;-70
2021/12/19 00:56:07;;;;;;;7.90;3.70;;;7.80;99.90;;;;;;5035743;28;20277;-70
2021/12/19 00:58:33;;;;;;;5.40;3.67;;;7.80;99.90;;;;;;5031404;28;20210;-70
2021/12/19 01:00:59;;;;;;;7.17;4.43;;;7.80;99.90;;;;;;5039451;28;20621;-70
2021/12/19 01:03:25;;;;;;;7.47;3.97;;;7.80;99.90;;;;;;5033834;28;20207;-70
2021/12/19 01:05:52;;;;;;;5.23;3.67;;;7.80;99.90;;;;;;5034126;28;20194;-68
2021/12/19 01:08:18;;;;;;;10.13;4.30;;;7.80;99.90;;;;;;5038622;28;20198;-68
2021/12/19 01:10:45;;;;;;;8.47;3.63;;;7.70;99.90;;;;;;5037448;28;20718;-68
2021/12/19 01:13:12;;;;;;;5.23;3.33;;;7.70;99.90;;;;;;5033687;28;20279;-69
2021/12/19 01:15:38;;;;;;;5.57;3.20;;;7.70;99.90;;;;;;5040371;28;20198;-70
2021/12/19 01:18:04;;;;;;;10.73;5.27;;;7.70;99.90;;;;;;5036536;28;20207;-69
2021/12/19 01:20:35;;;;;;;7.90;4.43;;;7.70;99.90;;;;;;5037448;28;20198;-68
2021/12/19 01:23:01;;;;;;;10.17;4.80;;;7.60;99.90;;;;;;5040816;28;20214;-70
2021/12/19 01:25:27;;;;;;;5.40;4.77;;;7.60;99.90;;;;;;5039095;28;20269;-69
2021/12/19 01:27:53;;;;;;;6.83;5.07;;;7.60;99.90;;;;;;5040410;28;20202;-70
2021/12/19 01:30:18;;;;;;;8.60;5.70;;;7.60;99.90;;;;;;5045274;28;20187;-71
2021/12/19 01:32:44;;;;;;;5.87;5.47;;;7.60;99.90;;;;;;5036862;28;20685;-70
2021/12/19 01:35:13;;;;;;;6.40;5.80;;;7.60;99.90;;;;;;5042809;28;20199;-69
2021/12/19 01:37:39;;;;;;;7.03;6.33;;;7.60;99.90;;;;;;5032811;28;20551;-74
2021/12/19 01:40:06;;;;;;;7.50;5.87;;;7.60;99.90;;;;;;5046590;28;20190;-72
2021/12/19 01:42:38;;;;;;;9.70;6.27;;;7.60;99.90;;;;;;5041515;28;20337;-70
2021/12/19 01:45:06;;;;;;;5.57;5.07;;;7.60;99.90;;;;;;5032900;28;20201;-71
2021/12/19 01:47:32;;;;;;;9.80;6.13;;;7.50;99.90;;;;;;5034562;28;20199;-72
2021/12/19 01:49:57;;;;;;;11.93;5.53;;;7.50;99.90;;;;;;5039564;28;20197;-74
2021/12/19 01:52:24;;;;;;;6.30;5.70;;;7.50;99.90;;;;;;5034920;28;20207;-77
2021/12/19 01:54:50;;;;;;;6.03;5.43;;;7.50;99.90;;;;;;5040607;28;20412;-70
2021/12/19 01:57:17;;;;;;;5.53;4.83;;;7.50;99.90;;;;;;5038855;28;20206;-70
2021/12/19 01:59:42;;;;;;;6.67;5.07;;;7.50;99.90;;;;;;5030517;28;20195;-71
2021/12/19 02:02:08;;;;;;;7.93;5.83;;;7.50;99.90;;;;;;5046813;28;20222;-69
2021/12/19 02:04:33;;;;;;;9.13;4.73;;;7.50;99.90;;;;;;5030141;28;20187;-71
2021/12/19 02:07:00;;;;;;;11.20;4.43;;;7.50;99.90;;;;;;5034069;28;20206;-70
2021/12/19 02:09:27;;;;;;;6.73;3.47;;;7.50;99.90;;;;;;5040254;28;20189;-72
2021/12/19 02:11:53;;;;;;;4.33;3.00;;;7.50;99.90;;;;;;5036200;28;20198;-71
2021/12/19 02:14:19;;;;;;;6.80;3.70;;;7.50;99.90;;;;;;5032599;28;20668;-76
2021/12/19 02:16:44;;;;;;;4.90;3.17;;;7.50;99.90;;;;;;5039379;28;21361;-78
2021/12/19 02:19:11;;;;;;;6.33;3.10;;;7.50;99.90;;;;;;5032851;28;20664;-72
2021/12/19 02:21:38;;;;;;;5.93;3.03;;;7.50;99.90;;;;;;5043453;28;20214;-71
2021/12/19 02:24:06;;;;;;;7.07;3.27;;;7.50;99.90;;;;;;5035750;28;20215;-71
2021/12/19 02:26:32;;;;;;;6.50;2.87;;;7.50;99.90;;;;;;5040154;28;20202;-68
2021/12/19 02:28:57;;;;;;;2.97;2.60;;;7.50;99.90;;;;;;5038870;28;20179;-71
2021/12/19 02:31:23;;;;;;;3.37;1.90;;;7.50;99.90;;;;;;5045215;28;20199;-71
2021/12/19 02:34:04;;;;;;;3.30;2.47;;;7.50;99.90;;;;;;5030487;28;20562;-71
2021/12/19 02:39:39;;;;;;;7.50;3.07;;;7.60;99.90;;;;;;5039274;28;20186;-71
2021/12/19 02:50:21;;;;;;;5.63;2.23;;;7.60;99.90;;;;;;5037916;28;20190;-72
2021/12/19 02:52:47;;;;;;;6.17;2.60;;;7.50;99.90;;;;;;5036987;28;20282;-72
2021/12/19 02:55:15;;;;;;;8.03;2.57;;;7.60;99.90;;;;;;5047506;28;20651;-71
2021/12/19 02:57:41;;;;;;;6.80;2.10;;;7.60;99.90;;;;;;5044130;28;20233;-82
2021/12/19 03:00:10;;;;;;;5.17;2.20;;;7.70;99.90;;;;;;5041519;28;20539;-73
2021/12/19 03:02:35;;;;;;;2.07;1.97;;;7.60;99.90;;;;;;5038388;28;20723;-77
2021/12/19 03:05:02;;;;;;;8.80;2.90;;;7.60;99.90;;;;;;5040184;28;20194;-79
2021/12/19 03:07:29;;;;;;;7.47;1.93;;;7.60;99.90;;;;;;5052998;28;20617;-69
2021/12/19 03:10:25;;;;;;;4.20;1.90;;;7.60;99.90;;;;;;5037573;28;20230;-73
2021/12/19 03:13:04;;;;;;;2.87;1.57;;;7.60;99.90;;;;;;5037842;28;20226;-74
2021/12/19 03:18:15;;;;;;;3.50;2.43;;;7.60;99.90;;;;;;5035611;28;20244;-71
2021/12/19 03:20:42;;;;;;;5.13;2.00;;;7.60;99.90;;;;;;5048016;28;20571;-80
2021/12/19 03:23:09;;;;;;;3.40;2.30;;;7.60;99.90;;;;;;5034981;28;20263;-69
2021/12/19 03:25:35;;;;;;;5.50;2.50;;;7.60;99.90;;;;;;5035215;28;20676;-72
2021/12/19 03:28:04;;;;;;;4.37;1.90;;;7.60;99.90;;;;;;5045426;28;20645;-70
2021/12/19 03:30:31;;;;;;;2.43;2.23;;;7.50;99.90;;;;;;5036775;28;20200;-70
2021/12/19 03:32:57;;;;;;;3.77;2.40;;;7.50;99.90;;;;;;5051412;28;20235;-74
2021/12/19 03:35:24;;;;;;;4.13;1.97;;;7.60;99.90;;;;;;5046107;28;20282;-74
2021/12/19 03:37:51;;;;;;;3.03;2.03;;;7.70;99.90;;;;;;5046613;28;20264;-70
2021/12/19 03:40:35;;;;;;;3.40;2.13;;;7.70;99.90;;;;;;5034241;28;20200;-69
2021/12/19 03:43:03;;;;;;;2.13;1.90;;;7.70;99.90;;;;;;5033553;28;20242;-74
2021/12/19 03:45:29;;;;;;;3.43;2.10;;;7.60;99.90;;;;;;5047981;28;20210;-72
2021/12/19 03:47:55;;;;;;;2.47;1.40;;;7.70;99.90;;;;;;5042529;28;20207;-67
2021/12/19 03:50:23;;;;;;;7.27;1.70;;;7.80;99.90;;;;;;5036195;28;20195;-68
2021/12/19 03:52:54;;;;;;;1.80;1.50;;;7.80;99.90;;;;;;5049615;28;20206;-68
2021/12/19 03:55:21;;;;;;;2.83;2.10;;;7.80;99.90;;;;;;5044834;28;20194;-68
2021/12/19 03:57:47;;;;;;;1.97;1.70;;;7.80;99.90;;;;;;5041993;28;20225;-69
2021/12/19 04:00:15;;;;;;;3.33;2.10;;;7.80;99.90;;;;;;5028593;28;20527;-70
2021/12/19 04:02:41;;;;;;;3.00;2.10;;;7.80;99.90;;;;;;5038348;28;20214;-73
2021/12/19 04:05:07;;;;;;;3.57;2.00;;;7.80;99.90;;;;;;5034561;28;20521;-69
2021/12/19 04:07:32;;;;;;;3.70;2.10;;;7.80;99.90;;;;;;5044332;28;20830;-69
2021/12/19 04:09:58;;;;;;;3.23;2.50;;;7.70;99.90;;;;;;5045207;28;20189;-67
2021/12/19 04:12:27;;;;;;;2.50;1.83;;;7.70;99.90;;;;;;5041126;28;20728;-69
2021/12/19 04:14:52;;;;;;;2.57;2.10;;;7.70;99.90;;;;;;5033325;28;20187;-68
2021/12/19 04:17:18;;;;;;;3.83;2.17;;;7.70;99.90;;;;;;5052579;28;20192;-75
2021/12/19 04:19:43;;;;;;;3.73;2.90;;;7.80;99.90;;;;;;5032017;28;20183;-76
2021/12/19 04:22:09;;;;;;;4.87;2.73;;;7.80;99.90;;;;;;5049940;28;20206;-65
2021/12/19 04:24:35;;;;;;;4.17;2.20;;;8.00;99.90;;;;;;5036665;28;20178;-65
2021/12/19 04:27:01;;;;;;;5.67;2.80;;;8.20;99.90;;;;;;5052178;28;20684;-65
2021/12/19 04:29:27;;;;;;;3.73;2.23;;;8.20;99.90;;;;;;5039743;28;20557;-64
2021/12/19 04:31:53;;;;;;;4.13;2.47;;;8.30;99.90;;;;;;5045770;28;20685;-65
2021/12/19 04:34:23;;;;;;;4.40;2.73;;;8.30;99.90;;;;;;5041814;28;20615;-63
2021/12/19 04:36:55;;;;;;;5.73;2.80;;;8.30;99.90;;;;;;5047695;28;20711;-67
2021/12/19 04:39:28;;;;;;;2.57;2.37;;;8.40;99.90;;;;;;5040177;28;20207;-66
2021/12/19 04:52:56;;;;;;;7.50;3.33;;;8.30;99.90;;;;;;5034525;28;20257;-65
2021/12/19 04:55:36;;;;;;;5.70;2.83;;;8.20;99.90;;;;;;5031629;28;20572;-65
2021/12/19 04:58:22;;;;;;;5.63;2.97;;;8.00;99.90;;;;;;5024877;28;20219;-65
2021/12/19 05:01:23;;;;;;;3.20;2.73;;;7.90;99.90;;;;;;5037582;28;20182;-65
2021/12/19 05:03:45;;;;;;;5.50;3.87;;;7.80;99.90;;;;;;5034580;28;20219;-64
2021/12/19 05:06:33;;;;;;;6.27;3.50;;;7.80;99.90;;;;;;5042099;28;20190;-65
2021/12/19 05:14:44;;;;;;;7.03;3.00;;;7.70;99.90;;;;;;5044369;28;20191;-65
2021/12/19 05:17:16;;;;;;;6.47;3.67;;;7.70;99.90;;;;;;5053344;28;20210;-66
2021/12/19 05:20:06;;;;;;;3.77;2.93;;;7.60;99.90;;;;;;5032323;28;20194;-65
2021/12/19 05:22:29;;;;;;;3.77;3.40;;;7.60;99.90;;;;;;5033573;28;20242;-63
2021/12/19 05:25:12;;;;;;;7.00;3.67;;;7.60;99.90;;;;;;5038190;28;20194;-63
2021/12/19 05:27:38;;;;;;;6.17;2.97;;;7.60;99.90;;;;;;5037376;28;20203;-63
2021/12/19 05:30:05;;;;;;;5.83;3.10;;;7.60;99.90;;;;;;5026186;28;20175;-64
2021/12/19 05:32:30;;;;;;;4.90;3.17;;;7.60;99.90;;;;;;5049595;28;20565;-64
2021/12/19 05:34:56;;;;;;;7.70;3.17;;;7.50;99.90;;;;;;5045942;28;20174;-64
2021/12/19 05:45:34;;;;;;;5.40;3.40;;;7.50;99.90;;;;;;5038837;28;20213;-64
2021/12/19 05:47:59;;;;;;;5.23;3.23;;;7.40;99.90;;;;;;5038014;28;20231;-64
2021/12/19 05:50:25;;;;;;;8.57;3.47;;;7.40;99.90;;;;;;5054593;28;20198;-63
2021/12/19 05:52:52;;;;;;;4.80;2.77;;;7.40;99.90;;;;;;5051171;28;20235;-64
2021/12/19 05:55:18;;;;;;;6.90;3.13;;;7.40;99.90;;;;;;5030250;28;20872;-65
2021/12/19 05:57:44;;;;;;;9.97;3.20;;;7.40;99.90;;;;;;5054609;28;20612;-64
2021/12/19 06:00:13;;;;;;;4.93;3.20;;;7.40;99.90;;;;;;5043611;28;20544;-64
2021/12/19 06:02:41;;;;;;;5.10;3.10;;;7.40;99.90;;;;;;5057123;28;20293;-64
2021/12/19 06:05:08;;;;;;;10.07;3.67;;;7.30;99.90;;;;;;5036151;28;20214;-63
2021/12/19 06:07:33;;;;;;;5.63;2.87;;;7.30;99.90;;;;;;5057807;28;20222;-63
2021/12/19 06:09:59;;;;;;;9.60;3.90;;;7.30;99.90;;;;;;5034484;28;20211;-64
2021/12/19 06:12:25;;;;;;;7.23;3.93;;;7.30;99.90;;;;;;5058007;28;20238;-65
2021/12/19 06:14:51;;;;;;;7.07;3.17;;;7.30;99.90;;;;;;5037698;28;20728;-65
2021/12/19 06:17:16;;;;;;;9.27;3.80;;;7.20;99.90;;;;;;5049096;28;20199;-64
2021/12/19 06:19:42;;;;;;;4.67;2.97;;;7.20;99.90;;;;;;5037831;28;20676;-63
2021/12/19 06:22:08;;;;;;;7.50;3.20;;;7.20;99.90;;;;;;5048721;28;20217;-63
2021/12/19 06:24:34;;;;;;;7.93;3.60;;;7.30;99.90;;;;;;5044445;28;20366;-64
2021/12/19 06:27:00;;;;;;;6.73;3.43;;;7.30;99.90;;;;;;5053915;28;20650;-63
2021/12/19 06:29:30;;;;;;;5.17;2.70;;;7.30;99.90;;;;;;5038469;28;20253;-64
2021/12/19 06:31:56;;;;;;;8.20;3.23;;;7.30;99.90;;;;;;5055518;28;20226;-64
2021/12/19 06:34:22;;;;;;;7.17;2.80;;;7.20;99.90;;;;;;5036293;28;20210;-63
2021/12/19 06:36:48;;;;;;;7.67;2.77;;;7.20;99.90;;;;;;5050547;28;20254;-63
2021/12/19 06:39:13;;;;;;;3.77;3.20;;;7.20;99.90;;;;;;5047987;28;20260;-64
2021/12/19 06:41:39;;;;;;;5.00;2.33;;;7.20;99.90;;;;;;5049646;28;20214;-64
2021/12/19 06:44:06;;;;;;;4.90;2.00;;;7.20;99.90;;;;;;5032787;28;20203;-64
2021/12/19 06:46:32;;;;;;;3.60;1.67;;;7.20;99.90;;;;;;5053327;28;20290;-65
2021/12/19 06:48:57;;;;;;;5.60;1.50;;;7.20;99.90;;;;;;5039856;28;20200;-64
2021/12/19 06:51:23;;;;;;;3.90;1.73;;;7.20;99.90;;;;;;5064127;28;20199;-64
2021/12/19 06:53:48;;;;;;;3.53;1.77;;;7.20;99.90;;;;;;5050255;28;20232;-64
2021/12/19 06:56:14;;;;;;;2.57;1.87;;;7.30;99.90;;;;;;5061075;28;20215;-64
2021/12/19 06:58:40;;;;;;;2.23;1.90;;;7.20;99.90;;;;;;5041553;28;20674;-64
2021/12/19 07:01:05;;;;;;;3.27;2.07;;;7.30;99.90;;;;;;5065943;28;20281;-65
2021/12/19 07:03:31;;;;;;;2.80;1.90;;;7.20;99.90;;;;;;5041894;28;20199;-65
2021/12/19 07:05:56;;;;;;;7.13;2.27;;;7.20;99.90;;;;;;5044863;28;20642;-65
2021/12/19 07:08:22;;;;;;;6.27;2.50;;;7.20;99.90;;;;;;5048512;28;20476;-64
2021/12/19 07:10:48;;;;;;;3.90;2.00;;;7.20;99.90;;;;;;5056064;28;20190;-63
2021/12/19 07:13:20;;;;;;;8.23;2.47;;;7.20;99.90;;;;;;5046306;28;20222;-63
2021/12/19 07:15:48;;;;;;;6.97;2.40;;;7.20;99.90;;;;;;5039184;28;20527;-63
2021/12/19 07:18:14;;;;;;;7.57;2.60;;;7.20;99.90;;;;;;5036935;28;20239;-65
2021/12/19 07:20:42;;;;;;;2.50;2.00;;;7.20;99.90;;;;;;5052382;28;20276;-64
2021/12/19 07:23:10;;;;;;;5.13;3.40;;;7.20;99.90;;;;;;5038490;28;20334;-63
2021/12/19 07:25:36;;;;;;;4.97;2.23;;;7.20;99.90;;;;;;5056754;28;20188;-64
2021/12/19 07:28:01;;;;;;;2.97;2.20;;;7.10;99.90;;;;;;5052265;28;20195;-63
2021/12/19 07:30:27;;;;;;;6.10;2.30;;;7.10;99.90;;;;;;5049899;28;20186;-63
2021/12/19 07:32:54;;;;;;;4.13;2.27;;;7.00;99.90;;;;;;5041513;28;20245;-63
2021/12/19 07:35:21;;;;;;;3.40;2.07;;;7.10;99.90;;;;;;5039296;28;20262;-65
2021/12/19 07:37:49;;;;;;;3.77;1.63;;;7.00;99.90;;;;;;5039742;28;20249;-65
2021/12/19 07:40:17;;;;;;;2.10;1.50;;;7.00;99.90;;;;;;5038707;28;20187;-64
2021/12/19 07:42:44;;;;;;;3.40;1.70;;;7.00;99.90;;;;;;5036588;28;20595;-64
2021/12/19 07:45:11;;;;;;;3.87;1.40;;;7.00;99.90;;;;;;5037764;28;20275;-64
2021/12/19 07:47:40;;;;;;;1.83;1.30;;;6.90;99.90;;;;;;5032029;28;20207;-64
2021/12/19 07:50:07;;;;;;;3.53;1.97;;;6.90;99.90;;;;;;5034287;28;20518;-65
2021/12/19 07:52:33;;;;;;;1.10;1.00;;;6.90;99.90;;;;;;5037667;28;20660;-64
2021/12/19 07:54:58;;;;;;;1.13;0.70;;;6.90;99.90;;;;;;5030905;28;20235;-62
2021/12/19 07:57:24;;;;;;;0.60;0.60;;;6.90;99.90;;;;;;5044935;28;20209;-63
2021/12/19 07:59:49;;;;;;;1.17;0.90;;;6.90;99.90;;;;;;5039083;28;20191;-63
2021/12/19 08:02:16;;;;;;;0.60;0.60;;;6.90;99.90;;;;;;5048083;28;20203;-63
2021/12/19 08:04:41;;;;;;;1.67;1.00;;;6.90;99.90;;;;;;5033690;28;20219;-64
2021/12/19 08:07:08;;;;;;;1.97;0.90;;;6.90;99.90;;;;;;5057305;28;20284;-63
2021/12/19 08:09:57;;;;;;;0.63;0.63;;;6.90;99.90;;;;;;5033774;28;20192;-65
2021/12/19 08:12:23;;;;;;;1.20;1.00;;;6.90;99.90;;;;;;5033516;28;20610;-65
2021/12/19 08:14:49;;;;;;;3.60;1.13;;;6.90;99.90;;;;;;5035427;28;20184;-65
2021/12/19 08:17:14;;;;;;;1.77;0.97;;;6.90;99.90;;;;;;5051600;28;20191;-65
2021/12/19 08:19:40;;;;;;;1.37;1.27;;;6.90;99.90;;;;;;5033367;28;20675;-65
2021/12/19 08:22:05;;;;;;;1.03;0.80;;;6.80;99.90;;;;;;5054378;28;20217;-65
2021/12/19 08:24:30;;;;;;;0.80;0.80;;;6.80;99.90;;;;;;5036144;28;20537;-64
2021/12/19 08:26:56;;;;;;;3.17;0.80;;;6.80;99.90;;;;;;5061746;28;20544;-64
2021/12/19 08:29:21;;;;;;;4.90;1.30;;;6.80;99.90;;;;;;5031299;28;20199;-65
2021/12/19 08:31:47;;;;;;;2.00;1.17;;;6.80;99.90;;;;;;5061592;28;20191;-64
2021/12/19 08:34:12;;;;;;;1.70;0.80;;;6.80;99.90;;;;;;5033795;28;20707;-64
2021/12/19 08:36:38;;;;;;;0.97;0.80;;;6.70;99.90;;;;;;5040984;28;20954;-65
2021/12/19 08:39:04;;;;;;;2.57;0.83;;;6.70;99.90;;;;;;5031390;28;20204;-65
2021/12/19 08:41:30;;;;;;;1.73;0.90;;;6.70;99.90;;;;;;5066151;28;20206;-65
2021/12/19 08:43:55;;;;;;;1.13;0.70;;;6.70;99.90;;;;;;5038863;28;20690;-65
2021/12/19 08:46:21;;;;;;;2.23;0.77;;;6.70;99.90;;;;;;5049268;28;20190;-65
2021/12/19 08:48:46;;;;;;;2.23;0.90;;;6.70;99.90;;;;;;5046293;28;20199;-65
2021/12/19 08:51:12;;;;;;;3.40;1.00;;;6.60;99.90;;;;;;5053817;28;20195;-64
2021/12/19 08:53:38;;;;;;;0.83;0.83;;;6.70;99.90;;;;;;5038574;28;20706;-65
2021/12/19 08:56:04;;;;;;;1.13;0.70;;;6.70;99.90;;;;;;5036687;28;20179;-65
2021/12/19 08:58:30;;;;;;;0.80;0.80;;;6.70;99.90;;;;;;5041342;28;20464;-65
2021/12/19 09:01:01;;;;;;;9.87;2.50;;;6.70;99.90;;;;;;5052818;28;20190;-65
2021/12/19 09:03:28;;;;;;;2.60;1.20;;;6.70;99.90;;;;;;5040781;28;20256;-65
2021/12/19 09:05:53;;;;;;;1.53;0.67;;;6.70;99.90;;;;;;5056131;28;20645;-64
2021/12/19 09:08:19;;;;;;;1.63;0.97;;;6.70;99.90;;;;;;5052524;28;20203;-63
2021/12/19 09:10:44;;;;;;;1.60;1.20;;;6.60;99.90;;;;;;5050352;28;20541;-63
2021/12/19 09:13:10;;;;;;;3.37;1.00;;;6.60;99.90;;;;;;5036065;28;20226;-63
2021/12/19 09:15:35;;;;;;;5.17;1.20;;;6.60;99.90;;;;;;5065342;28;20230;-64
2021/12/19 09:18:01;;;;;;;3.00;1.13;;;6.60;99.90;;;;;;5039688;28;20205;-63
2021/12/19 09:20:27;;;;;;;2.27;1.30;;;6.60;99.90;;;;;;5042809;28;20203;-63
2021/12/19 09:22:52;;;;;;;0.87;0.80;;;6.60;99.90;;;;;;5039420;28;20218;-63
2021/12/19 09:25:20;;;;;;;3.90;1.50;;;6.50;99.90;;;;;;5037693;28;20178;-64
2021/12/19 09:27:46;;;;;;;2.60;1.27;;;6.60;99.90;;;;;;5042494;28;20200;-65
2021/12/19 09:30:13;;;;;;;2.00;1.40;;;6.60;99.90;;;;;;5036725;28;20767;-64
2021/12/19 09:32:40;;;;;;;1.47;0.93;;;6.50;99.90;;;;;;5052368;28;20226;-64
2021/12/19 09:35:06;;;;;;;2.77;1.13;;;6.60;99.90;;;;;;5031047;28;20273;-65
2021/12/19 09:37:35;;;;;;;1.37;1.27;;;6.60;99.90;;;;;;5046082;28;20298;-65
2021/12/19 09:40:04;;;;;;;3.10;1.07;;;6.60;99.90;;;;;;5034310;28;20207;-65
2021/12/19 09:42:34;;;;;;;4.17;1.87;;;6.60;99.90;;;;;;5049011;28;20217;-65
2021/12/19 09:45:02;;;;;;;2.67;0.87;;;6.60;99.90;;;;;;5035992;28;20867;-64
2021/12/19 09:47:28;;;;;;;8.83;2.17;;;6.60;99.90;;;;;;5042837;28;20568;-65
2021/12/19 09:49:54;;;;;;;0.90;0.87;;;6.60;99.90;;;;;;5038115;28;20190;-64
2021/12/19 09:52:20;;;;;;;3.40;1.23;;;6.60;99.90;;;;;;5059122;28;20660;-65
2021/12/19 09:54:45;;;;;;;1.30;1.00;;;6.60;99.90;;;;;;5038033;28;20223;-65
2021/12/19 09:57:11;;;;;;;3.17;1.47;;;6.50;99.90;;;;;;5050110;28;20207;-66
2021/12/19 09:59:38;;;;;;;3.03;1.30;;;6.60;99.90;;;;;;5031720;28;20199;-64
2021/12/19 10:02:04;;;;;;;2.60;0.90;;;6.60;99.90;;;;;;5050700;28;20559;-65
2021/12/19 10:04:34;;;;;;;5.43;1.40;;;6.60;99.90;;;;;;5030985;28;20187;-65
2021/12/19 10:07:18;;;;;;;1.50;0.80;;;6.60;99.90;;;;;;5047044;28;20244;-65
2021/12/19 10:10:02;;;;;;;1.90;1.30;;;6.60;99.90;;;;;;5045534;28;20182;-63
2021/12/19 10:15:06;;;;;;;1.30;1.20;;;6.60;99.90;;;;;;5036643;28;20187;-63
2021/12/19 10:17:32;;;;;;;1.20;1.10;;;6.70;99.90;;;;;;5039499;28;20194;-63
2021/12/19 10:19:59;;;;;;;2.97;1.10;;;6.60;99.90;;;;;;5031493;28;20187;-64
2021/12/19 10:22:37;;;;;;;1.70;1.10;;;6.60;99.90;;;;;;5054700;28;20700;-64
2021/12/19 10:25:17;;;;;;;1.63;1.20;;;6.70;99.90;;;;;;5028627;28;20183;-64
2021/12/19 10:28:05;;;;;;;1.07;0.90;;;6.70;99.90;;;;;;5061596;28;20197;-64
2021/12/19 10:30:38;;;;;;;1.30;1.00;;;6.70;99.90;;;;;;5053027;28;20194;-65
2021/12/19 10:33:11;;;;;;;2.73;0.90;;;6.80;99.90;;;;;;5032837;28;20257;-65
2021/12/19 10:35:50;;;;;;;2.20;1.07;;;6.70;99.90;;;;;;5039787;28;20693;-66
2021/12/19 10:38:17;;;;;;;2.10;1.20;;;6.70;99.90;;;;;;5034302;28;20613;-65
2021/12/19 10:40:51;;;;;;;1.57;1.37;;;6.70;99.90;;;;;;5052553;28;20195;-64
2021/12/19 10:43:19;;;;;;;0.97;0.93;;;6.70;99.90;;;;;;5051857;28;20214;-63
2021/12/19 10:45:51;;;;;;;1.37;0.83;;;6.70;99.90;;;;;;5053279;28;20198;-65
2021/12/19 10:48:32;;;;;;;2.10;1.20;;;6.70;99.90;;;;;;5042543;28;20198;-65
2021/12/19 10:51:01;;;;;;;1.70;1.30;;;6.70;99.90;;;;;;5040851;28;20194;-65
2021/12/19 10:53:49;;;;;;;3.20;1.40;;;6.70;99.90;;;;;;5047774;28;20242;-65
2021/12/19 10:56:21;;;;;;;5.40;1.43;;;6.70;99.90;;;;;;5048507;28;20221;-65
2021/12/19 10:58:55;;;;;;;2.90;1.43;;;6.70;99.90;;;;;;5040973;28;20224;-65
2021/12/19 11:01:36;;;;;;;4.67;2.03;;;6.70;99.90;;;;;;5044387;28;20196;-65
2021/12/19 11:04:04;;;;;;;3.83;1.80;;;6.70;99.90;;;;;;5040927;28;20546;-64
2021/12/19 11:06:38;;;;;;;5.20;1.60;;;6.70;99.90;;;;;;5063294;28;20281;-64
2021/12/19 11:09:10;;;;;;;3.97;1.40;;;6.80;99.90;;;;;;5027587;28;20261;-63
2021/12/19 11:11:39;;;;;;;2.90;1.50;;;6.70;99.90;;;;;;5033968;28;20195;-64
2021/12/19 11:14:05;;;;;;;4.03;1.60;;;6.80;99.90;;;;;;5041869;28;20210;-64
2021/12/19 11:16:33;;;;;;;3.37;1.50;;;6.70;99.90;;;;;;5041077;28;20252;-65
2021/12/19 11:18:59;;;;;;;4.17;1.47;;;6.70;99.90;;;;;;5038629;28;20211;-65
2021/12/19 11:21:25;;;;;;;4.70;1.67;;;6.80;99.90;;;;;;5063003;28;20246;-66
2021/12/19 11:23:51;;;;;;;4.47;1.27;;;6.80;99.90;;;;;;5036032;28;20269;-66
2021/12/19 11:26:19;;;;;;;3.53;1.50;;;6.80;99.90;;;;;;5044434;28;20653;-66
2021/12/19 11:28:45;;;;;;;6.13;1.20;;;6.80;99.90;;;;;;5041185;28;20208;-65
2021/12/19 11:31:12;;;;;;;3.17;1.07;;;6.80;99.90;;;;;;5060765;28;20217;-64
2021/12/19 11:33:57;;;;;;;3.70;1.73;;;6.80;99.90;;;;;;5036976;28;20622;-64
2021/12/19 11:36:24;;;;;;;4.60;1.20;;;6.80;99.90;;;;;;5039098;28;20183;-65
2021/12/19 11:38:50;;;;;;;3.90;1.17;;;6.80;99.90;;;;;;5037365;28;20205;-65
2021/12/19 11:41:16;;;;;;;1.37;0.93;;;6.80;99.90;;;;;;5038220;28;20897;-65
2021/12/19 11:43:43;;;;;;;8.30;1.77;;;6.80;99.90;;;;;;5039833;28;20191;-64
2021/12/19 11:46:22;;;;;;;3.47;1.70;;;6.80;99.90;;;;;;5035231;28;20205;-65
2021/12/19 11:49:19;;;;;;;2.87;1.27;;;6.80;99.90;;;;;;5035997;28;20285;-63
2021/12/19 11:51:45;;;;;;;2.20;1.30;;;6.80;99.90;;;;;;5036690;28;20195;-65
2021/12/19 11:54:18;;;;;;;3.50;1.30;;;6.80;99.90;;;;;;5038757;28;20735;-64
2021/12/19 11:57:09;;;;;;;3.40;1.20;;;6.80;99.90;;;;;;5035511;28;20207;-65
2021/12/19 11:59:38;;;;;;;3.53;1.73;;;6.80;99.90;;;;;;5038121;28;20186;-64
2021/12/19 12:02:33;;;;;;;3.83;1.20;;;6.80;99.90;;;;;;5040532;28;20218;-65
2021/12/19 12:05:14;;;;;;;6.30;1.47;;;6.80;99.90;;;;;;5030302;28;20682;-64
2021/12/19 12:08:04;;;;;;;3.13;1.53;;;6.80;99.90;;;;;;5035825;28;20553;-66
2021/12/19 12:10:50;;;;;;;4.20;1.40;;;6.80;99.90;;;;;;5039211;28;20180;-65
2021/12/19 12:13:37;;;;;;;2.07;1.03;;;6.80;99.90;;;;;;5036381;28;20210;-66
2021/12/19 12:16:11;;;;;;;3.17;1.60;;;6.80;99.90;;;;;;5034933;28;20191;-66
2021/12/19 12:18:42;;;;;;;4.83;1.87;;;6.80;99.90;;;;;;5034241;28;20558;-65
2021/12/19 12:21:21;;;;;;;4.90;1.40;;;6.80;99.90;;;;;;5036134;28;20214;-66
2021/12/19 12:23:52;;;;;;;3.60;1.60;;;6.80;99.90;;;;;;5034958;28;20210;-73
2021/12/19 12:26:45;;;;;;;2.63;1.10;;;6.80;99.90;;;;;;5038508;28;20198;-74
2021/12/19 12:29:11;;;;;;;1.77;1.33;;;6.80;99.90;;;;;;5039922;28;20203;-72
2021/12/19 12:31:38;;;;;;;5.60;1.77;;;6.80;99.90;;;;;;5036211;28;20273;-72
2021/12/19 12:34:09;;;;;;;4.73;1.50;;;6.80;99.90;;;;;;5037753;28;20260;-73
2021/12/19 12:36:35;;;;;;;3.07;1.80;;;6.80;99.90;;;;;;5038573;28;20277;-75
2021/12/19 12:39:07;;;;;;;3.60;1.50;;;6.80;99.90;;;;;;5036667;28;20309;-74
2021/12/19 12:44:06;;;;;;;5.53;1.70;;;6.80;99.90;;;;;;5033393;28;20209;-72
2021/12/19 12:46:32;;;;;;;6.80;1.47;;;6.80;99.90;;;;;;5040070;28;20201;-72
2021/12/19 12:49:03;;;;;;;4.37;1.50;;;6.80;99.90;;;;;;5035834;28;20199;-72
2021/12/19 12:51:47;;;;;;;4.03;1.60;;;6.80;99.90;;;;;;5039465;28;20728;-72
2021/12/19 12:54:20;;;;;;;3.10;1.63;;;6.80;99.90;;;;;;5035227;28;20226;-72
2021/12/19 12:56:54;;;;;;;5.03;1.13;;;6.80;99.90;;;;;;5038557;28;20208;-71
2021/12/19 12:59:22;;;;;;;2.73;1.10;;;6.80;99.90;;;;;;5029108;28;20210;-83
2021/12/19 13:01:54;;;;;;;2.17;1.23;;;7.00;99.90;;;;;;5050131;28;20214;-70
2021/12/19 13:04:24;;;;;;;9.33;1.97;;;7.10;99.90;;;;;;5036880;28;20282;-69
2021/12/19 13:07:02;;;;;;;4.07;1.50;;;7.20;99.90;;;;;;5034100;28;20265;-70
2021/12/19 13:09:35;;;;;;;4.23;1.67;;;7.40;99.90;;;;;;5033169;28;20661;-68
2021/12/19 13:12:03;;;;;;;2.07;1.07;;;7.50;99.90;;;;;;5037122;28;20191;-70
2021/12/19 13:14:31;;;;;;;5.10;1.30;;;7.50;99.90;;;;;;5034034;28;20207;-71
2021/12/19 13:17:04;;;;;;;5.30;2.33;;;7.50;99.90;;;;;;5037686;28;20661;-69
2021/12/19 13:19:41;;;;;;;4.47;1.37;;;7.60;99.90;;;;;;5033955;28;20179;-68
2021/12/19 13:22:16;;;;;;;4.07;1.47;;;7.50;99.90;;;;;;5034155;28;20199;-70
2021/12/19 13:24:43;;;;;;;6.00;1.17;;;7.50;99.90;;;;;;5031868;28;20517;-70
2021/12/19 13:27:30;;;;;;;3.97;1.27;;;7.50;99.90;;;;;;5057090;28;20195;-70
2021/12/19 13:30:06;;;;;;;3.63;1.80;;;7.40;99.90;;;;;;5029454;28;20263;-77
2021/12/19 13:32:41;;;;;;;3.93;1.50;;;7.30;99.90;;;;;;5029136;28;20517;-72
2021/12/19 13:35:26;;;;;;;2.53;1.50;;;7.20;99.90;;;;;;5036690;28;20190;-69
2021/12/19 13:38:05;;;;;;;1.03;0.80;;;7.20;99.90;;;;;;5033319;28;20207;-71
2021/12/19 13:40:35;;;;;;;3.17;1.20;;;7.10;99.90;;;;;;5036446;28;20281;-71
2021/12/19 13:43:04;;;;;;;4.43;1.03;;;7.10;99.90;;;;;;5036582;28;20219;-69
2021/12/19 13:45:33;;;;;;;2.80;0.97;;;7.10;99.90;;;;;;5035690;28;20187;-72
2021/12/19 13:48:01;;;;;;;2.77;1.00;;;7.10;99.90;;;;;;5033803;28;20201;-69
2021/12/19 13:50:30;;;;;;;1.30;1.17;;;7.00;99.90;;;;;;5033395;28;20174;-71
2021/12/19 13:52:56;;;;;;;2.37;1.20;;;7.00;99.90;;;;;;5037561;28;20826;-70
2021/12/19 13:55:21;;;;;;;1.80;1.07;;;7.00;99.90;;;;;;5035248;28;20191;-71